Time;durP1;ratioP1;P1;durP2;ratioP2;P2;SDS_P1;SDS_P2;PMS_P1;PMS_P2;Temp;Humidity;BMP_temperature;BMP_pressure;BME280_temperature;BME280_humidity;BME280_pressure;Samples;Min_cycle;Max_cycle;Signal;HPM_P1;HPM_P2
2023/08/17 00:00:21;;;;;;;4.05;2.38;;;22.00;99.90;;;22.04;69.99;101377.84;4895663;28;104095;-44
2023/08/17 00:02:47;;;;;;;3.57;2.23;;;22.10;99.90;;;22.01;69.52;101380.78;4895311;28;102148;-45
2023/08/17 00:05:13;;;;;;;2.20;1.87;;;22.00;99.90;;;22.02;69.09;101373.56;4894207;28;108381;-45
2023/08/17 00:07:39;;;;;;;2.23;1.90;;;22.00;99.90;;;22.05;68.88;101374.22;4897620;28;97962;-46
2023/08/17 00:10:05;;;;;;;3.10;2.40;;;22.10;99.90;;;22.06;70.08;101381.31;4893790;28;97751;-48
2023/08/17 00:12:31;;;;;;;2.97;2.40;;;22.10;99.90;;;22.07;69.64;101377.66;4893693;28;98957;-45
2023/08/17 00:14:57;;;;;;;3.83;3.07;;;22.10;99.90;;;22.10;72.85;101388.19;4896784;28;98150;-44
2023/08/17 00:17:22;;;;;;;6.00;2.42;;;22.10;99.90;;;22.11;70.81;101389.91;4894240;28;97274;-45
2023/08/17 00:19:49;;;;;;;3.83;3.00;;;22.10;99.90;;;22.10;72.59;101401.63;4893425;28;117165;-47
2023/08/17 00:22:15;;;;;;;3.13;2.03;;;22.10;99.90;;;22.07;70.70;101404.53;4893407;28;98854;-48
2023/08/17 00:24:44;;;;;;;3.47;2.40;;;22.00;99.90;;;22.06;72.67;101402.81;4890359;28;110342;-43
2023/08/17 00:27:10;;;;;;;1.90;1.70;;;22.00;99.90;;;22.03;69.22;101403.00;4892843;28;97883;-46
2023/08/17 00:29:36;;;;;;;5.47;2.23;;;22.00;99.90;;;22.03;69.72;101396.78;4896122;28;97087;-46
2023/08/17 00:32:03;;;;;;;3.70;2.70;;;22.00;99.90;;;22.04;70.81;101396.66;4898139;28;98029;-44
2023/08/17 00:34:29;;;;;;;2.33;2.00;;;22.00;99.90;;;22.04;69.55;101398.50;4898111;28;99704;-43
2023/08/17 00:36:55;;;;;;;3.03;2.17;;;22.00;99.90;;;22.00;68.65;101392.50;4897065;28;97458;-47
2023/08/17 00:39:20;;;;;;;3.00;1.87;;;22.00;99.90;;;22.01;68.60;101399.56;4907486;28;97023;-45
2023/08/17 00:41:46;;;;;;;2.80;2.08;;;22.00;99.90;;;21.96;68.52;101396.34;4923580;28;105338;-45
2023/08/17 00:44:12;;;;;;;3.00;2.15;;;22.00;99.90;;;22.03;70.52;101397.63;4931933;28;97108;-44
2023/08/17 00:46:39;;;;;;;1.92;1.75;;;22.00;99.90;;;22.07;69.13;101398.28;4923660;28;97479;-46
2023/08/17 00:49:06;;;;;;;3.42;2.85;;;22.00;99.90;;;22.04;72.19;101402.03;4926945;28;98644;-44
2023/08/17 00:51:32;;;;;;;2.50;1.90;;;22.00;99.90;;;22.00;69.91;101400.56;4908236;28;97555;-44
2023/08/17 00:54:01;;;;;;;2.83;2.07;;;21.90;99.90;;;22.03;71.79;101397.63;4925211;28;115363;-44
2023/08/17 00:56:27;;;;;;;3.63;2.20;;;21.90;99.90;;;22.02;71.34;101398.59;4926996;28;97510;-48
2023/08/17 00:58:54;;;;;;;3.93;3.10;;;21.90;99.90;;;22.00;73.40;101403.25;4919925;28;101050;-46
2023/08/17 01:01:20;;;;;;;8.07;3.03;;;21.90;99.90;;;22.00;74.89;101405.06;4903411;28;97591;-43
2023/08/17 01:03:46;;;;;;;4.10;2.97;;;21.90;99.90;;;21.94;74.75;101403.66;4922986;28;108637;-45
2023/08/17 01:06:12;;;;;;;4.13;2.50;;;21.80;99.90;;;21.96;71.99;101407.94;4920413;28;97405;-44
2023/08/17 01:08:39;;;;;;;5.50;2.50;;;21.80;99.90;;;21.93;74.36;101404.63;4923992;28;104223;-43
2023/08/17 01:11:36;;;;;;;3.07;2.77;;;21.80;99.90;;;21.94;70.64;101409.03;4928783;28;97484;-44
2023/08/17 01:14:27;;;;;;;2.47;2.10;;;21.80;99.90;;;21.92;69.98;101400.22;4901790;28;101296;-44
2023/08/17 01:17:06;;;;;;;3.60;2.67;;;21.80;99.90;;;21.91;74.14;101395.81;4921099;28;97594;-50
2023/08/17 01:19:33;;;;;;;5.57;2.93;;;21.80;99.90;;;21.89;70.73;101389.72;4922252;28;97303;-44
2023/08/17 01:22:05;;;;;;;4.30;2.70;;;21.80;99.90;;;21.90;73.99;101386.91;4910224;28;124418;-45
2023/08/17 01:24:31;;;;;;;1.90;1.53;;;21.80;99.90;;;21.81;69.37;101381.31;4918012;28;97493;-44
2023/08/17 01:26:58;;;;;;;2.13;1.63;;;21.70;99.90;;;21.88;69.70;101382.63;4924071;28;97098;-43
2023/08/17 01:29:24;;;;;;;2.60;2.33;;;21.80;99.90;;;21.87;70.98;101380.91;4923014;28;108873;-46
2023/08/17 01:32:12;;;;;;;3.60;2.70;;;21.80;99.90;;;21.84;73.18;101386.47;4935463;28;115896;-43
2023/08/17 01:34:54;;;;;;;3.63;2.70;;;21.70;99.90;;;21.87;72.28;101388.97;4916080;28;101657;-43
2023/08/17 01:37:22;;;;;;;1.60;1.50;;;21.70;99.90;;;21.85;69.66;101393.59;4923602;28;98331;-43
2023/08/17 01:39:52;;;;;;;2.43;2.00;;;21.70;99.90;;;21.85;68.86;101388.22;4923037;28;97140;-45
2023/08/17 01:42:18;;;;;;;1.77;1.60;;;21.80;99.90;;;21.87;68.54;101388.97;4917668;28;103534;-43
2023/08/17 01:44:44;;;;;;;6.10;4.90;;;21.80;99.90;;;21.93;70.18;101391.19;4913257;28;113116;-44
2023/08/17 01:47:11;;;;;;;13.50;7.03;;;21.80;99.90;;;21.95;72.21;101394.63;4919848;28;109832;-43
2023/08/17 01:49:37;;;;;;;2.27;2.00;;;21.90;99.90;;;21.89;68.69;101389.72;4932373;28;97571;-46
2023/08/17 01:52:03;;;;;;;4.03;3.07;;;21.80;99.90;;;21.93;68.39;101385.81;4925911;28;98011;-45
2023/08/17 01:54:29;;;;;;;2.03;1.83;;;21.90;99.90;;;21.92;68.57;101394.84;4922998;28;98331;-43
2023/08/17 01:56:54;;;;;;;2.20;2.00;;;21.90;99.90;;;21.88;68.97;101393.38;4921513;28;97443;-44
2023/08/17 01:59:20;;;;;;;2.55;2.20;;;21.90;99.90;;;21.81;68.74;101389.38;4926415;28;97484;-44
2023/08/17 02:01:46;;;;;;;1.70;1.40;;;21.90;99.90;;;21.88;68.16;101390.69;4927005;28;101976;-45
2023/08/17 02:04:11;;;;;;;6.07;3.67;;;21.90;99.90;;;21.95;68.66;101387.44;4925246;28;120385;-43
2023/08/17 02:06:37;;;;;;;4.00;3.60;;;21.90;99.90;;;21.99;69.77;101385.41;4924163;28;98214;-43
2023/08/17 02:09:03;;;;;;;2.47;1.98;;;22.00;99.90;;;21.95;68.09;101391.94;4925702;28;96952;-43
2023/08/17 02:11:29;;;;;;;2.27;1.50;;;22.00;99.90;;;21.83;68.54;101390.13;4938873;28;107712;-43
2023/08/17 02:13:54;;;;;;;3.80;2.67;;;22.00;99.90;;;21.93;69.79;101386.69;4928476;28;119803;-43
2023/08/17 02:16:20;;;;;;;2.50;1.77;;;22.00;99.90;;;21.95;68.75;101384.75;4919345;28;103993;-43
2023/08/17 02:18:46;;;;;;;6.50;3.70;;;22.00;99.90;;;22.04;68.96;101393.13;4922408;28;97546;-43
2023/08/17 02:21:11;;;;;;;3.63;3.33;;;22.00;99.90;;;22.04;70.60;101383.22;4926502;28;104356;-44
2023/08/17 02:23:37;;;;;;;2.30;2.10;;;22.00;99.90;;;22.03;68.70;101375.28;4927500;28;112959;-45
2023/08/17 02:26:03;;;;;;;4.57;3.20;;;21.90;99.90;;;22.06;70.59;101378.63;4924928;28;105432;-44
2023/08/17 02:28:29;;;;;;;4.37;2.97;;;21.90;99.90;;;22.05;69.54;101379.59;4925600;28;98543;-45
2023/08/17 02:30:56;;;;;;;2.45;2.25;;;22.00;99.90;;;22.06;68.28;101375.09;4928268;28;97744;-44
2023/08/17 02:33:22;;;;;;;1.90;1.70;;;22.00;99.90;;;22.05;68.85;101362.59;4929954;28;105600;-48
2023/08/17 02:35:50;;;;;;;1.83;1.73;;;21.90;99.90;;;22.04;68.45;101367.13;4930128;28;97852;-46
2023/08/17 02:38:16;;;;;;;2.33;2.03;;;22.00;99.90;;;22.03;68.09;101360.03;4928658;28;97175;-45
2023/08/17 02:40:41;;;;;;;2.43;1.73;;;21.90;99.90;;;22.00;68.01;101354.88;4926107;28;121568;-43
2023/08/17 02:43:07;;;;;;;2.07;1.87;;;21.90;99.90;;;22.01;67.78;101347.69;4921148;28;115121;-44
2023/08/17 02:45:34;;;;;;;1.83;1.58;;;22.00;99.90;;;22.02;67.64;101347.56;4923901;28;98244;-45
2023/08/17 02:48:00;;;;;;;3.17;2.87;;;22.00;99.90;;;22.08;70.52;101341.78;4922880;28;106574;-43
2023/08/17 02:50:26;;;;;;;2.97;2.50;;;22.00;99.90;;;22.09;71.36;101348.84;4925864;28;97467;-45
2023/08/17 02:52:52;;;;;;;4.63;3.10;;;22.00;99.90;;;22.07;71.59;101350.81;4935793;28;97239;-45
2023/08/17 02:55:17;;;;;;;2.00;1.90;;;21.90;99.90;;;22.03;69.15;101343.91;4921235;28;121228;-43
2023/08/17 02:57:43;;;;;;;2.03;1.80;;;21.90;99.90;;;22.02;68.36;101344.03;4925677;28;116574;-44
2023/08/17 03:00:10;;;;;;;2.90;2.60;;;21.90;99.90;;;22.05;69.24;101341.09;4915627;28;97333;-43
2023/08/17 03:02:35;;;;;;;1.77;1.67;;;22.00;99.90;;;22.03;68.73;101338.53;4923500;28;97190;-43
2023/08/17 03:05:03;;;;;;;3.42;2.67;;;21.90;99.90;;;22.03;69.80;101327.78;4901360;28;103083;-45
2023/08/17 03:07:28;;;;;;;5.77;2.60;;;21.90;99.90;;;22.04;71.70;101334.88;4912578;28;99013;-44
2023/08/17 03:09:54;;;;;;;3.27;2.20;;;21.90;99.90;;;22.02;72.03;101342.19;4924398;28;97868;-44
2023/08/17 03:12:20;;;;;;;6.03;2.90;;;21.90;99.90;;;21.98;72.39;101340.69;4927659;28;111275;-45
2023/08/17 03:14:46;;;;;;;2.27;2.07;;;21.80;99.90;;;21.97;70.11;101349.72;4920130;28;107336;-44
2023/08/17 03:17:11;;;;;;;3.63;2.93;;;21.80;99.90;;;21.96;72.71;101353.38;4922356;28;97547;-44
2023/08/17 03:19:37;;;;;;;3.20;2.90;;;21.80;99.90;;;21.94;70.99;101350.78;4921115;28;101793;-44
2023/08/17 03:22:03;;;;;;;3.37;3.03;;;21.80;99.90;;;21.94;72.15;101344.56;4922342;28;117980;-44
2023/08/17 03:24:29;;;;;;;4.00;2.93;;;21.80;99.90;;;21.90;72.87;101348.44;4927697;28;97761;-43
2023/08/17 03:26:55;;;;;;;2.33;2.07;;;21.70;99.90;;;21.86;71.49;101346.97;4921858;28;106638;-44
2023/08/17 03:29:20;;;;;;;3.97;3.00;;;21.70;99.90;;;21.87;70.76;101343.31;4920548;28;97569;-46
2023/08/17 03:31:46;;;;;;;6.67;2.40;;;21.70;99.90;;;21.87;72.64;101337.94;4926395;28;106485;-46
2023/08/17 03:34:12;;;;;;;3.87;3.37;;;21.70;99.90;;;21.86;72.88;101337.09;4915348;28;98683;-43
2023/08/17 03:36:38;;;;;;;3.70;3.07;;;21.70;99.90;;;21.85;72.37;101345.25;4922951;28;109985;-44
2023/08/17 03:39:04;;;;;;;3.33;3.03;;;21.70;99.90;;;21.83;71.66;101348.03;4917544;28;99710;-45
2023/08/17 03:41:30;;;;;;;2.77;2.30;;;21.60;99.90;;;21.84;71.18;101359.63;4919986;28;97095;-47
2023/08/17 03:43:56;;;;;;;2.20;1.87;;;21.70;99.90;;;21.82;69.60;101361.56;4923507;28;97415;-45
2023/08/17 03:46:21;;;;;;;2.80;2.57;;;21.70;99.90;;;21.80;71.92;101363.50;4905136;28;100674;-46
2023/08/17 03:48:47;;;;;;;4.00;3.30;;;21.60;99.90;;;21.78;73.21;101355.56;4921593;28;106056;-46
2023/08/17 03:51:13;;;;;;;2.10;1.80;;;21.60;99.90;;;21.76;70.17;101357.50;4919131;28;98492;-45
2023/08/17 03:53:39;;;;;;;4.63;2.93;;;21.60;99.90;;;21.78;70.52;101354.69;4930546;28;106130;-45
2023/08/17 03:56:05;;;;;;;4.47;3.37;;;21.60;99.90;;;21.76;73.17;101367.38;4931156;28;97297;-45
2023/08/17 03:58:34;;;;;;;3.17;2.37;;;21.60;99.90;;;21.76;69.87;101372.75;4927359;28;97938;-42
2023/08/17 04:01:00;;;;;;;4.43;3.47;;;21.60;99.90;;;21.74;73.85;101369.31;4922278;28;97460;-42
2023/08/17 04:03:26;;;;;;;1.80;1.70;;;21.60;99.90;;;21.74;69.83;101370.19;4923078;28;97071;-43
2023/08/17 04:05:51;;;;;;;3.60;2.90;;;21.60;99.90;;;21.77;70.02;101385.22;4926333;28;107248;-43
2023/08/17 04:08:17;;;;;;;4.53;3.70;;;21.60;99.90;;;21.75;72.62;101382.63;4903181;28;115598;-44
2023/08/17 04:10:43;;;;;;;1.50;1.40;;;21.60;99.90;;;21.76;69.03;101381.66;4921628;28;118465;-45
2023/08/17 04:13:09;;;;;;;6.80;4.00;;;21.60;99.90;;;21.78;72.14;101382.41;4931523;28;109326;-46
2023/08/17 04:15:34;;;;;;;5.27;3.93;;;21.60;99.90;;;21.76;73.04;101376.28;4923609;28;97097;-47
2023/08/17 04:18:00;;;;;;;3.00;2.37;;;21.60;99.90;;;21.74;70.88;101382.75;4926100;28;97576;-43
2023/08/17 04:20:26;;;;;;;4.07;2.73;;;21.60;99.90;;;21.76;72.46;101383.50;4927006;28;120519;-44
2023/08/17 04:22:52;;;;;;;4.77;3.37;;;21.60;99.90;;;21.74;72.62;101385.44;4921914;28;105010;-43
2023/08/17 04:25:18;;;;;;;4.77;3.90;;;21.50;99.90;;;21.73;73.68;101383.72;4918563;28;98944;-44
2023/08/17 04:27:44;;;;;;;3.53;3.20;;;21.50;99.90;;;21.72;72.30;101382.00;4925451;28;97444;-43
2023/08/17 04:30:10;;;;;;;8.50;2.83;;;21.50;99.90;;;21.71;72.83;101382.97;4923926;28;98734;-44
2023/08/17 04:32:36;;;;;;;5.87;3.20;;;21.50;99.90;;;21.72;73.01;101390.06;4927692;28;97202;-43
2023/08/17 04:35:02;;;;;;;3.47;3.17;;;21.50;99.90;;;21.71;71.86;101391.88;4928189;28;97627;-43
2023/08/17 04:37:28;;;;;;;2.20;1.97;;;21.50;99.90;;;21.71;72.29;101401.75;4921536;28;97244;-48
2023/08/17 04:39:54;;;;;;;4.37;2.60;;;21.50;99.90;;;21.69;70.27;101400.03;4926100;28;98239;-45
2023/08/17 04:42:19;;;;;;;4.50;2.17;;;21.50;99.90;;;21.73;71.40;101406.06;4939133;28;97295;-44
2023/08/17 04:44:46;;;;;;;5.83;3.40;;;21.50;99.90;;;21.69;73.56;101399.16;4939293;28;97004;-43
2023/08/17 04:47:12;;;;;;;3.50;3.20;;;21.50;99.90;;;21.67;72.85;101396.59;4923796;28;97643;-43
2023/08/17 04:49:37;;;;;;;2.70;2.17;;;21.50;99.90;;;21.63;69.34;101405.84;4897507;28;101684;-43
2023/08/17 04:52:04;;;;;;;1.97;1.67;;;21.40;99.90;;;21.59;69.29;101409.72;4924339;28;107941;-46
2023/08/17 04:54:30;;;;;;;2.83;1.43;;;21.50;99.90;;;21.63;69.39;101416.56;4923335;28;97655;-44
2023/08/17 04:56:56;;;;;;;1.50;1.40;;;21.60;99.90;;;21.68;68.80;101409.03;4924039;28;117547;-44
2023/08/17 04:59:21;;;;;;;1.60;1.40;;;21.70;99.90;;;21.76;68.60;101415.72;4923174;28;104104;-43
2023/08/17 05:01:47;;;;;;;2.03;1.73;;;21.70;99.90;;;21.74;68.78;101420.34;4919666;28;97351;-44
2023/08/17 05:04:13;;;;;;;1.60;1.50;;;21.80;99.90;;;21.73;68.38;101415.94;4919379;28;97494;-43
2023/08/17 05:06:38;;;;;;;1.97;1.77;;;21.80;99.90;;;21.78;68.47;101419.16;4922490;28;97945;-43
2023/08/17 05:09:05;;;;;;;5.43;3.23;;;21.90;99.90;;;21.85;69.06;101425.81;4927234;28;97057;-46
2023/08/17 05:11:31;;;;;;;2.28;2.08;;;21.80;99.90;;;21.90;69.17;101418.28;4922266;28;97049;-43
2023/08/17 05:13:57;;;;;;;1.60;1.50;;;21.90;99.90;;;21.92;68.00;101413.66;4923061;28;97088;-44
2023/08/17 05:16:23;;;;;;;1.42;1.33;;;21.80;99.90;;;21.87;67.94;101413.13;4923313;28;101098;-54
2023/08/17 05:18:49;;;;;;;1.70;1.43;;;21.80;99.90;;;21.91;67.75;101414.63;4924235;28;102674;-43
2023/08/17 05:21:14;;;;;;;2.67;2.00;;;21.90;99.90;;;21.94;67.79;101414.41;4923699;28;107461;-43
2023/08/17 05:23:40;;;;;;;3.63;3.00;;;21.90;99.90;;;21.97;68.51;101419.53;4922851;28;116219;-43
2023/08/17 05:26:06;;;;;;;2.00;1.63;;;21.90;99.90;;;21.97;67.62;101419.53;4927430;28;110993;-43
2023/08/17 05:28:31;;;;;;;3.00;2.40;;;21.90;99.90;;;21.97;68.32;101424.91;4922865;28;106144;-47
2023/08/17 05:31:08;;;;;;;4.07;2.70;;;21.80;99.90;;;21.97;68.26;101424.91;4922328;28;97493;-44
2023/08/17 05:33:34;;;;;;;1.70;1.57;;;21.80;99.90;;;21.94;67.74;101419.78;4916374;28;96957;-45
2023/08/17 05:36:00;;;;;;;5.83;3.87;;;21.80;99.90;;;21.95;70.05;101421.50;4922439;28;97950;-46
2023/08/17 05:38:26;;;;;;;5.43;3.67;;;21.80;99.90;;;21.91;70.35;101410.09;4918775;28;100979;-45
2023/08/17 05:43:28;;;;;;;2.00;1.70;;;21.70;99.90;;;21.87;67.84;101429.25;5069012;22;98343;-89
2023/08/17 05:45:57;;;;;;;4.40;3.83;;;21.70;99.90;;;21.86;69.74;101422.16;4840639;28;101932;-90
2023/08/17 05:48:23;;;;;;;4.00;2.90;;;21.70;99.90;;;21.86;69.14;101427.53;4902112;28;102595;-89
2023/08/17 05:50:49;;;;;;;5.37;3.13;;;21.70;99.90;;;21.84;71.04;101419.56;4895285;28;96973;-90
2023/08/17 05:53:15;;;;;;;3.97;3.30;;;21.70;99.90;;;21.84;69.88;101424.06;4903123;28;97582;-90
2023/08/17 05:55:41;;;;;;;4.70;3.20;;;21.70;99.90;;;21.84;69.46;101424.06;4907831;28;97126;-90
2023/08/17 05:58:07;;;;;;;1.70;1.53;;;21.70;99.90;;;21.82;68.17;101426.88;4890742;28;105547;-89
2023/08/17 06:00:33;;;;;;;1.93;1.73;;;21.70;99.90;;;21.86;68.17;101438.28;4917843;28;104666;-91
2023/08/17 06:03:02;;;;;;;1.97;1.53;;;21.80;99.90;;;21.81;67.99;101419.78;4861176;28;97350;-91
2023/08/17 06:05:30;;;;;;;1.67;1.33;;;21.80;99.90;;;21.88;67.90;101430.97;4850060;28;98188;-91
2023/08/17 06:07:59;;;;;;;8.93;3.60;;;21.80;99.90;;;21.94;68.68;101427.81;4899664;28;101768;-89
2023/08/17 06:10:25;;;;;;;4.73;3.40;;;21.90;99.90;;;21.95;70.34;101421.50;4852386;28;97500;-92
2023/08/17 06:13:00;;;;;;;4.50;3.50;;;21.80;99.90;;;21.94;69.83;101420.63;4857470;28;97861;-92
2023/08/17 06:15:26;;;;;;;5.20;2.97;;;21.80;99.90;;;21.93;67.92;101418.91;4805927;28;102918;-91
2023/08/17 06:17:52;;;;;;;1.70;1.60;;;21.80;99.90;;;21.91;67.79;101415.47;4819276;28;97402;-91
2023/08/17 06:20:20;;;;;;;4.13;2.87;;;21.90;99.90;;;21.95;67.67;101418.81;4821226;28;97510;-91
2023/08/17 06:22:48;;;;;;;1.53;1.43;;;21.90;99.90;;;21.95;67.50;101421.50;4822000;28;97491;-92
2023/08/17 06:25:14;;;;;;;1.57;1.27;;;21.90;99.90;;;21.97;67.14;101419.53;4861824;28;98569;-93
2023/08/17 06:27:45;;;;;;;2.13;1.30;;;21.90;99.90;;;21.96;67.39;101424.06;4852107;28;99641;-92
2023/08/17 06:30:12;;;;;;;3.50;2.93;;;22.00;99.90;;;22.04;68.02;101426.22;4843925;28;104169;-94
2023/08/17 06:32:37;;;;;;;1.70;1.60;;;22.10;99.90;;;22.05;67.03;101417.22;4855841;28;97189;-91
2023/08/17 06:35:08;;;;;;;1.73;1.50;;;22.00;99.90;;;22.06;66.97;101418.94;4879874;28;104207;-90
2023/08/17 06:37:34;;;;;;;1.73;1.40;;;22.10;99.90;;;22.09;66.72;101424.06;4833613;28;98863;-89
2023/08/17 06:40:01;;;;;;;1.93;1.70;;;22.10;99.90;;;22.09;67.02;101418.69;4812691;28;97607;-90
2023/08/17 06:42:29;;;;;;;1.70;1.60;;;22.10;99.90;;;22.09;67.62;101429.44;4834800;28;97108;-90
2023/08/17 06:44:55;;;;;;;3.27;2.40;;;22.10;99.90;;;22.10;67.20;101425.78;4800720;28;101050;-87
2023/08/17 06:47:21;;;;;;;2.73;2.00;;;22.10;99.90;;;22.09;67.03;101423.22;4814249;28;105653;-90
2023/08/17 06:49:52;;;;;;;3.55;1.83;;;22.10;99.90;;;22.11;67.04;101422.13;4800232;28;98270;-90
2023/08/17 06:52:18;;;;;;;5.60;3.13;;;22.10;99.90;;;22.13;70.33;101436.34;4835616;28;97339;-91
2023/08/17 06:54:44;;;;;;;5.30;3.70;;;22.10;99.90;;;22.10;71.13;101433.00;4866680;28;100313;-90
2023/08/17 06:57:21;;;;;;;2.63;1.88;;;22.00;99.90;;;22.09;68.20;101429.44;4882070;28;100076;-91
2023/08/17 06:59:54;;;;;;;4.10;3.33;;;22.00;99.90;;;22.07;69.81;101431.38;4887080;28;96794;-90
2023/08/17 07:02:20;;;;;;;2.75;1.92;;;22.00;99.90;;;22.11;67.52;101442.78;4886583;23;97023;-60
2023/08/17 07:04:47;;;;;;;3.75;2.80;;;22.00;99.90;;;22.07;69.41;101431.38;4877063;28;97698;-60
2023/08/17 07:07:14;;;;;;;5.10;2.95;;;22.00;99.90;;;22.08;68.84;101435.78;4880571;28;98056;-60
2023/08/17 07:09:40;;;;;;;3.07;2.77;;;22.00;99.90;;;22.10;68.10;101438.38;4881748;28;97514;-60
2023/08/17 07:12:06;;;;;;;1.87;1.73;;;22.00;99.90;;;22.07;66.96;101436.75;4894673;28;97533;-60
2023/08/17 07:14:33;;;;;;;1.53;1.40;;;22.00;99.90;;;22.05;66.91;101427.06;4885354;28;98852;-60
2023/08/17 07:16:59;;;;;;;2.53;1.90;;;22.10;99.90;;;22.08;66.61;101427.72;4884760;28;100245;-62
2023/08/17 07:19:25;;;;;;;2.03;1.70;;;22.10;99.90;;;22.10;67.78;101431.16;4884092;28;97346;-62
2023/08/17 07:21:51;;;;;;;2.17;1.97;;;22.10;99.90;;;22.10;67.91;101431.16;4885539;28;97403;-60
2023/08/17 07:24:17;;;;;;;1.73;1.60;;;22.10;99.90;;;22.04;67.31;101436.97;4882991;28;97355;-60
2023/08/17 07:26:43;;;;;;;1.63;1.45;;;22.00;99.90;;;22.01;66.95;101431.81;4881841;28;97656;-61
2023/08/17 07:29:09;;;;;;;3.47;2.57;;;22.00;99.90;;;22.09;67.26;101440.19;4886481;28;99113;-60
2023/08/17 07:31:37;;;;;;;3.33;2.78;;;22.10;99.90;;;22.13;69.86;101446.19;4881548;28;98761;-60
2023/08/17 07:34:04;;;;;;;4.37;3.13;;;22.10;99.90;;;22.15;69.51;101446.97;4888414;28;97914;-60
2023/08/17 07:36:31;;;;;;;6.40;3.37;;;22.10;99.90;;;22.14;70.07;101459.56;4874048;28;98018;-61
2023/08/17 07:38:57;;;;;;;4.20;2.97;;;22.10;99.90;;;22.11;72.12;101454.38;4874322;28;97537;-60
2023/08/17 07:41:23;;;;;;;4.82;3.22;;;22.00;99.90;;;22.05;72.12;101459.31;4878791;28;96984;-60
2023/08/17 07:43:48;;;;;;;4.47;3.23;;;22.00;99.90;;;22.03;71.90;101456.72;4888136;28;123071;-58
2023/08/17 07:46:14;;;;;;;4.20;3.25;;;21.90;99.90;;;22.04;71.94;101462.97;4882622;28;97129;-60
2023/08/17 07:48:40;;;;;;;6.30;4.13;;;21.90;99.90;;;22.00;72.64;101467.69;4880241;28;100309;-60
2023/08/17 07:51:06;;;;;;;11.25;3.95;;;21.90;99.90;;;22.00;71.06;101464.16;4875038;28;105970;-60
2023/08/17 07:53:32;;;;;;;4.65;3.58;;;21.80;99.90;;;21.99;71.93;101471.34;4876290;28;105613;-58
2023/08/17 07:55:57;;;;;;;4.23;3.40;;;21.80;99.90;;;21.96;70.76;101471.56;4876499;28;105689;-59
2023/08/17 07:58:24;;;;;;;4.10;3.70;;;21.80;99.90;;;21.95;72.99;101472.53;4875840;28;109199;-60
2023/08/17 08:00:50;;;;;;;6.35;3.60;;;21.80;99.90;;;21.97;72.00;101474.13;4882262;28;108457;-60
2023/08/17 08:03:15;;;;;;;6.20;3.57;;;21.80;99.90;;;21.98;72.68;101474.97;4878684;28;106088;-59
2023/08/17 08:05:41;;;;;;;5.23;3.47;;;21.80;99.90;;;21.98;72.71;101469.59;4882047;28;97738;-60
2023/08/17 08:08:07;;;;;;;4.53;3.13;;;21.90;99.90;;;21.97;72.14;101473.25;4871405;28;97589;-60
2023/08/17 08:10:33;;;;;;;6.23;3.67;;;21.90;99.90;;;21.95;73.22;101477.91;4872244;28;97658;-60
2023/08/17 08:12:59;;;;;;;4.20;3.30;;;21.90;99.90;;;21.97;72.08;101473.25;4885448;28;98791;-60
2023/08/17 08:15:25;;;;;;;6.43;4.07;;;21.90;99.90;;;21.98;71.78;101474.97;4874346;28;100110;-60
2023/08/17 08:17:51;;;;;;;6.07;3.87;;;21.90;99.90;;;21.98;72.56;101489.28;4880685;28;98725;-57
2023/08/17 08:20:17;;;;;;;5.47;3.47;;;21.90;99.90;;;21.97;72.91;101478.63;4878316;28;97304;-60
2023/08/17 08:22:42;;;;;;;4.85;3.45;;;21.90;99.90;;;21.98;71.27;101483.03;4874988;28;114143;-58
2023/08/17 08:25:10;;;;;;;4.87;3.70;;;21.90;99.90;;;21.97;71.58;101481.31;4883879;28;100399;-60
2023/08/17 08:27:35;;;;;;;6.30;3.70;;;21.90;99.90;;;22.01;73.31;101482.84;4860961;28;96999;-59
2023/08/17 08:30:01;;;;;;;6.97;4.25;;;21.90;99.90;;;21.99;73.04;101474.03;4879677;28;97066;-60
2023/08/17 08:32:27;;;;;;;7.27;4.40;;;21.90;99.90;;;21.99;72.70;101476.72;4876926;28;99594;-58
2023/08/17 08:34:52;;;;;;;5.10;3.43;;;21.90;99.90;;;22.00;72.23;101478.44;4874825;28;103792;-61
2023/08/17 08:37:18;;;;;;;7.53;4.00;;;21.90;99.90;;;22.03;71.39;101467.47;4877631;28;101148;-60
2023/08/17 08:39:53;;;;;;;7.50;3.93;;;21.90;99.90;;;22.02;73.20;101468.44;4876663;28;97729;-60
2023/08/17 08:42:20;;;;;;;2.78;2.05;;;21.90;99.90;;;21.99;68.90;101479.41;4870990;28;102597;-60
2023/08/17 08:44:46;;;;;;;5.83;3.77;;;21.90;99.90;;;22.04;72.81;101474.56;4873914;28;97545;-60
2023/08/17 08:47:13;;;;;;;5.60;3.85;;;21.90;99.90;;;22.05;71.81;101472.75;4883929;28;97361;-60
2023/08/17 08:49:40;;;;;;;2.27;2.07;;;22.00;99.90;;;22.00;67.81;101465.03;4877331;28;97477;-60
2023/08/17 08:52:18;;;;;;;3.40;2.37;;;22.00;99.90;;;22.06;68.28;101472.66;4880220;28;97341;-60
2023/08/17 08:54:45;;;;;;;4.77;3.53;;;22.00;99.90;;;22.06;72.59;101461.91;4882889;28;97994;-60
2023/08/17 08:57:14;;;;;;;5.95;3.78;;;22.00;99.90;;;22.05;68.85;101462.88;4894584;28;98821;-60
2023/08/17 08:59:45;;;;;;;5.53;3.90;;;22.00;99.90;;;22.10;72.84;101460.72;4859066;28;98011;-60
2023/08/17 09:02:16;;;;;;;6.60;4.40;;;22.10;99.90;;;22.10;73.03;101465.22;4880107;28;97886;-60
2023/08/17 09:04:44;;;;;;;4.40;2.53;;;22.10;99.90;;;22.08;69.77;101449.22;4878519;28;97486;-60
2023/08/17 09:07:14;;;;;;;3.23;2.00;;;22.00;99.90;;;22.04;67.84;101446.84;4878376;28;105399;-60
2023/08/17 09:09:40;;;;;;;2.28;1.50;;;22.00;99.90;;;22.08;67.72;101454.59;4882849;28;97496;-60
2023/08/17 09:12:11;;;;;;;8.15;4.18;;;22.10;99.90;;;22.15;71.20;101453.22;4874863;28;100195;-60
2023/08/17 09:14:37;;;;;;;6.43;4.70;;;22.10;99.90;;;22.15;73.26;101453.22;4880054;28;97554;-60
2023/08/17 09:17:04;;;;;;;7.37;4.37;;;22.10;99.90;;;22.17;72.73;101459.31;4873404;28;98003;-61
2023/08/17 09:19:34;;;;;;;6.82;4.35;;;22.10;99.90;;;22.18;73.16;101455.66;4881530;28;98628;-61
2023/08/17 09:22:01;;;;;;;6.45;4.35;;;22.20;99.90;;;22.18;73.28;101454.81;4880229;28;102232;-61
2023/08/17 09:24:36;;;;;;;5.45;4.03;;;22.10;99.90;;;22.18;70.93;101466.41;4881867;28;99136;-62
2023/08/17 09:27:03;;;;;;;6.65;4.28;;;22.20;99.90;;;22.17;71.54;101467.38;4886997;28;97359;-63
2023/08/17 09:29:36;;;;;;;5.17;3.17;;;22.10;99.90;;;22.16;71.82;101449.56;4883746;28;98526;-62
2023/08/17 09:32:07;;;;;;;4.88;3.17;;;22.20;99.90;;;22.16;70.54;101452.25;4892653;28;100201;-64
2023/08/17 09:34:33;;;;;;;3.42;2.63;;;22.20;99.90;;;22.16;70.69;101446.88;4891927;28;99842;-62
2023/08/17 09:37:05;;;;;;;7.40;4.38;;;22.10;99.90;;;22.17;73.91;101437.84;4897313;28;102697;-63
2023/08/17 09:39:33;;;;;;;5.73;3.80;;;22.20;99.90;;;22.18;74.46;101444.91;4882533;28;97854;-63
2023/08/17 09:42:00;;;;;;;7.90;4.63;;;22.10;99.90;;;22.17;73.59;101443.22;4889230;28;101425;-63
2023/08/17 09:44:26;;;;;;;6.07;3.97;;;22.10;99.90;;;22.14;69.79;101443.44;4875957;28;97593;-64
2023/08/17 09:46:56;;;;;;;7.22;3.80;;;22.10;99.90;;;22.17;71.50;101432.47;4883484;28;97439;-63
2023/08/17 09:49:31;;;;;;;6.20;3.77;;;22.10;99.90;;;22.21;72.42;101443.84;4880865;28;97485;-62
2023/08/17 09:52:02;;;;;;;6.23;4.27;;;22.20;99.90;;;22.20;70.66;101439.44;4885373;28;104344;-62
2023/08/17 09:54:30;;;;;;;6.60;4.50;;;22.20;99.90;;;22.21;71.23;101433.09;4887861;28;101860;-61
2023/08/17 09:56:58;;;;;;;5.75;3.33;;;22.20;99.90;;;22.18;69.47;101439.53;4888523;28;97072;-63
2023/08/17 09:59:25;;;;;;;4.78;3.58;;;22.20;99.90;;;22.21;72.07;101439.31;4887160;28;115671;-62
2023/08/17 10:01:51;;;;;;;6.43;3.90;;;22.20;99.90;;;22.21;72.09;101428.56;4871240;28;101022;-63
2023/08/17 10:04:22;;;;;;;3.97;2.55;;;22.20;99.90;;;22.22;68.95;101437.50;4888816;28;98801;-63
2023/08/17 10:07:03;;;;;;;2.40;1.73;;;22.20;99.90;;;22.14;68.07;101432.69;4885525;28;97133;-63
2023/08/17 10:09:37;;;;;;;5.90;3.92;;;22.20;99.90;;;22.20;71.54;101440.28;4883859;28;98523;-62
2023/08/17 10:12:11;;;;;;;5.30;3.58;;;22.20;99.90;;;22.22;69.65;101441.03;4868776;28;101425;-64